Time;durP1;ratioP1;P1;durP2;ratioP2;P2;SDS_P1;SDS_P2;PMS_P1;PMS_P2;Temp;Humidity;BMP_temperature;BMP_pressure;BME280_temperature;BME280_humidity;BME280_pressure;Samples;Min_cycle;Max_cycle;Signal;HPM_P1;HPM_P2
2023/12/19 00:00:33;;;;;;;4.82;4.15;;;7.50;99.90;;;;;;5062730;28;20037;-76
2023/12/19 00:02:58;;;;;;;3.97;3.63;;;7.40;99.90;;;;;;5064130;28;20040;-76
2023/12/19 00:05:24;;;;;;;3.17;2.97;;;7.40;99.90;;;;;;5054877;28;20099;-76
2023/12/19 00:07:50;;;;;;;7.55;3.63;;;7.40;99.90;;;;;;5063776;28;20055;-77
2023/12/19 00:10:16;;;;;;;7.28;4.15;;;7.40;99.90;;;;;;5057879;28;20072;-76
2023/12/19 00:12:42;;;;;;;6.00;3.03;;;7.40;99.90;;;;;;5058809;28;20053;-76
2023/12/19 00:15:08;;;;;;;4.03;3.30;;;7.40;99.90;;;;;;5056678;28;20486;-77
2023/12/19 00:17:33;;;;;;;4.97;4.18;;;7.40;99.90;;;;;;5058663;28;20086;-77
2023/12/19 00:19:59;;;;;;;6.05;4.15;;;7.40;99.90;;;;;;5053083;28;20044;-77
2023/12/19 00:22:25;;;;;;;9.27;5.80;;;7.40;99.90;;;;;;5052467;28;20069;-76
2023/12/19 00:24:51;;;;;;;5.20;3.85;;;7.40;99.90;;;;;;5061827;28;20433;-77
2023/12/19 00:27:17;;;;;;;6.68;3.45;;;7.40;99.90;;;;;;5051456;28;20410;-76
2023/12/19 00:29:42;;;;;;;5.72;3.50;;;7.40;99.90;;;;;;5061246;28;20041;-76
2023/12/19 00:32:08;;;;;;;9.02;4.07;;;7.40;99.90;;;;;;5061273;28;20040;-77
2023/12/19 00:34:33;;;;;;;3.80;3.50;;;7.40;99.90;;;;;;5054935;28;20041;-76
2023/12/19 00:36:59;;;;;;;12.38;3.55;;;7.40;99.90;;;;;;5057739;28;20051;-77
2023/12/19 00:39:24;;;;;;;5.75;4.75;;;7.40;99.90;;;;;;5060158;28;20040;-76
2023/12/19 00:41:50;;;;;;;6.93;4.65;;;7.40;99.90;;;;;;5055347;28;20079;-75
2023/12/19 00:44:16;;;;;;;4.03;3.65;;;7.40;99.90;;;;;;5061398;28;20102;-75
2023/12/19 00:46:43;;;;;;;3.33;2.67;;;7.40;99.90;;;;;;5058169;28;20044;-75
2023/12/19 00:49:11;;;;;;;3.05;2.38;;;7.40;99.90;;;;;;5061105;28;20454;-76
2023/12/19 00:51:37;;;;;;;2.95;2.45;;;7.40;99.90;;;;;;5057920;28;20048;-75
2023/12/19 00:54:03;;;;;;;2.33;2.13;;;7.40;99.90;;;;;;5054348;28;20049;-76
2023/12/19 00:56:28;;;;;;;2.53;2.33;;;7.40;99.90;;;;;;5055858;28;20052;-76
2023/12/19 00:58:54;;;;;;;3.95;3.03;;;7.40;99.90;;;;;;5052193;28;20444;-75
2023/12/19 01:01:25;;;;;;;7.22;2.90;;;7.40;99.90;;;;;;5057483;28;20520;-75
2023/12/19 01:03:51;;;;;;;3.70;3.45;;;7.40;99.90;;;;;;5053789;28;20056;-75
2023/12/19 01:06:17;;;;;;;3.33;3.13;;;7.40;99.90;;;;;;5049435;28;20053;-76
2023/12/19 01:08:43;;;;;;;2.05;1.95;;;7.40;99.90;;;;;;5061781;28;20063;-76
2023/12/19 01:11:10;;;;;;;3.35;2.97;;;7.40;99.90;;;;;;5056395;28;20063;-75
2023/12/19 01:13:36;;;;;;;4.32;2.38;;;7.40;99.90;;;;;;5050741;28;20040;-75
2023/12/19 01:16:03;;;;;;;4.93;3.88;;;7.40;99.90;;;;;;5065170;28;20044;-76
2023/12/19 01:18:28;;;;;;;3.42;3.08;;;7.40;99.90;;;;;;5054203;28;20498;-75
2023/12/19 01:20:54;;;;;;;7.25;4.40;;;7.40;99.90;;;;;;5050953;28;20056;-76
2023/12/19 01:23:20;;;;;;;2.15;1.98;;;7.40;99.90;;;;;;5060799;28;20056;-75
2023/12/19 01:25:45;;;;;;;4.32;3.35;;;7.40;99.90;;;;;;5061855;28;20045;-75
2023/12/19 01:28:11;;;;;;;2.90;2.70;;;7.40;99.90;;;;;;5065065;28;20052;-76
2023/12/19 01:30:37;;;;;;;9.98;3.90;;;7.40;99.90;;;;;;5059880;28;20047;-76
2023/12/19 01:33:03;;;;;;;3.45;2.22;;;7.40;99.90;;;;;;5056683;28;20040;-76
2023/12/19 01:35:29;;;;;;;2.30;1.95;;;7.30;99.90;;;;;;5058976;28;20036;-76
2023/12/19 01:37:54;;;;;;;2.63;2.42;;;7.40;99.90;;;;;;5053096;28;20106;-75
2023/12/19 01:40:20;;;;;;;1.65;1.55;;;7.40;99.90;;;;;;5050021;28;20041;-75
2023/12/19 01:42:46;;;;;;;5.82;2.78;;;7.30;99.90;;;;;;5057185;28;20041;-75
2023/12/19 01:45:13;;;;;;;2.75;2.55;;;7.40;99.90;;;;;;5057219;28;20091;-75
2023/12/19 01:47:44;;;;;;;8.88;2.13;;;7.30;99.90;;;;;;5052099;28;20052;-75
2023/12/19 01:50:12;;;;;;;2.33;2.13;;;7.30;99.90;;;;;;5063541;28;20530;-76
2023/12/19 01:52:41;;;;;;;4.82;2.80;;;7.30;99.90;;;;;;5056433;28;20056;-75
2023/12/19 01:55:08;;;;;;;2.42;1.80;;;7.30;99.90;;;;;;5060688;28;20059;-75
2023/12/19 01:57:35;;;;;;;3.05;2.80;;;7.30;99.90;;;;;;5053107;28;20048;-75
2023/12/19 02:00:01;;;;;;;1.15;1.15;;;7.30;99.90;;;;;;5052731;28;20049;-75
2023/12/19 02:02:27;;;;;;;2.08;1.75;;;7.30;99.90;;;;;;5058804;28;20501;-75
2023/12/19 02:04:56;;;;;;;2.70;2.50;;;7.30;99.90;;;;;;5055404;28;20087;-75
2023/12/19 02:07:22;;;;;;;2.47;1.13;;;7.30;99.90;;;;;;5051137;28;20122;-74
2023/12/19 02:09:47;;;;;;;1.00;1.00;;;7.30;99.90;;;;;;5053877;28;20494;-75
2023/12/19 02:12:13;;;;;;;1.02;1.02;;;7.30;99.90;;;;;;5059327;28;20073;-75
2023/12/19 02:14:42;;;;;;;3.10;2.33;;;7.20;99.90;;;;;;5051125;28;20049;-75
2023/12/19 02:17:08;;;;;;;1.40;1.38;;;7.20;99.90;;;;;;5053033;28;20079;-75
2023/12/19 02:19:42;;;;;;;4.07;2.28;;;7.20;99.90;;;;;;5052451;28;20057;-75
2023/12/19 02:22:07;;;;;;;4.78;3.58;;;7.20;99.90;;;;;;5052022;28;20071;-75
2023/12/19 02:24:33;;;;;;;2.60;1.92;;;7.20;99.90;;;;;;5059234;28;20098;-75
2023/12/19 02:26:59;;;;;;;4.90;3.17;;;7.20;99.90;;;;;;5050507;28;20052;-75
2023/12/19 02:29:24;;;;;;;5.43;2.25;;;7.10;99.90;;;;;;5054050;28;20048;-75
2023/12/19 02:31:50;;;;;;;3.20;2.92;;;7.10;99.90;;;;;;5053224;28;20075;-75
2023/12/19 02:34:15;;;;;;;5.50;3.25;;;7.10;99.90;;;;;;5059660;28;20124;-75
2023/12/19 02:36:41;;;;;;;1.67;1.42;;;7.10;99.90;;;;;;5055184;28;20084;-75
2023/12/19 02:39:10;;;;;;;1.40;1.30;;;7.10;99.90;;;;;;5053422;28;20056;-76
2023/12/19 02:41:35;;;;;;;1.30;1.20;;;7.10;99.90;;;;;;5052523;28;20080;-75
2023/12/19 02:44:01;;;;;;;1.45;1.45;;;7.10;99.90;;;;;;5046773;28;20695;-75
2023/12/19 02:46:26;;;;;;;1.67;1.17;;;7.10;99.90;;;;;;5049525;28;20052;-75
2023/12/19 02:48:52;;;;;;;1.58;1.50;;;7.10;99.90;;;;;;5047853;28;20099;-75
2023/12/19 02:51:19;;;;;;;1.48;1.38;;;7.10;99.90;;;;;;5047019;28;20041;-75
2023/12/19 02:53:45;;;;;;;1.42;1.23;;;7.10;99.90;;;;;;5051197;28;20056;-75
2023/12/19 02:56:10;;;;;;;2.72;2.53;;;7.10;99.90;;;;;;5046163;28;20403;-75
2023/12/19 02:58:36;;;;;;;6.32;2.33;;;7.10;99.90;;;;;;5053825;28;20043;-75
2023/12/19 03:01:01;;;;;;;1.42;1.33;;;7.10;99.90;;;;;;5061476;28;20190;-75
2023/12/19 03:03:27;;;;;;;3.10;2.15;;;7.10;99.90;;;;;;5062144;28;20428;-75
2023/12/19 03:05:53;;;;;;;1.55;1.45;;;7.10;99.90;;;;;;5052356;28;20059;-75
2023/12/19 03:08:19;;;;;;;2.30;0.88;;;7.10;99.90;;;;;;5053610;28;20057;-75
2023/12/19 03:10:45;;;;;;;1.60;1.50;;;7.10;99.90;;;;;;5055765;28;20223;-75
2023/12/19 03:13:10;;;;;;;1.65;1.45;;;7.10;99.90;;;;;;5050545;28;20131;-75
2023/12/19 03:15:36;;;;;;;2.90;2.55;;;7.10;99.90;;;;;;5048524;28;20153;-75
2023/12/19 03:18:02;;;;;;;2.95;2.65;;;7.10;99.90;;;;;;5053770;28;20048;-75
2023/12/19 03:20:27;;;;;;;3.95;3.17;;;7.10;99.90;;;;;;5051383;28;20560;-75
2023/12/19 03:22:53;;;;;;;1.15;1.15;;;7.00;99.90;;;;;;5056501;28;20041;-75
2023/12/19 03:25:19;;;;;;;0.93;0.93;;;7.10;99.90;;;;;;5051212;28;20090;-75
2023/12/19 03:27:44;;;;;;;1.05;1.05;;;7.10;99.90;;;;;;5047686;28;20124;-75
2023/12/19 03:30:10;;;;;;;2.08;1.88;;;7.00;99.90;;;;;;5048288;28;20052;-75
2023/12/19 03:32:37;;;;;;;2.17;1.77;;;7.00;99.90;;;;;;5053595;28;20112;-75
2023/12/19 03:35:02;;;;;;;1.55;1.45;;;7.10;99.90;;;;;;5055766;28;20551;-75
2023/12/19 03:37:28;;;;;;;6.55;1.80;;;7.00;99.90;;;;;;5056524;28;20045;-75
2023/12/19 03:39:54;;;;;;;1.35;1.25;;;7.10;99.90;;;;;;5057654;28;20368;-74
2023/12/19 03:42:19;;;;;;;1.95;1.80;;;7.10;99.90;;;;;;5052780;28;20048;-75
2023/12/19 03:44:45;;;;;;;4.15;3.33;;;7.10;99.90;;;;;;5050091;28;20052;-75
2023/12/19 03:47:12;;;;;;;1.85;1.40;;;7.00;99.90;;;;;;5048454;28;20071;-74
2023/12/19 03:49:38;;;;;;;4.00;2.30;;;7.10;99.90;;;;;;5052645;28;20107;-74
2023/12/19 03:52:04;;;;;;;2.30;2.20;;;7.10;99.90;;;;;;5050647;28;20097;-74
2023/12/19 03:54:29;;;;;;;1.65;1.55;;;7.10;99.90;;;;;;5050230;28;20053;-74
2023/12/19 03:56:55;;;;;;;1.80;1.70;;;7.10;99.90;;;;;;5044775;28;20364;-74
2023/12/19 03:59:21;;;;;;;2.78;2.55;;;7.00;99.90;;;;;;5050077;28;20048;-74
2023/12/19 04:01:48;;;;;;;1.38;1.23;;;7.00;99.90;;;;;;5049841;28;20045;-74
2023/12/19 04:04:14;;;;;;;1.45;1.45;;;7.10;99.90;;;;;;5054771;28;20044;-74
2023/12/19 04:06:43;;;;;;;3.05;2.67;;;7.10;99.90;;;;;;5049221;28;20052;-75
2023/12/19 04:09:10;;;;;;;1.60;1.50;;;7.10;99.90;;;;;;5050117;28;20049;-74
2023/12/19 04:11:36;;;;;;;2.08;1.95;;;7.10;99.90;;;;;;5050865;28;20091;-74
2023/12/19 04:14:02;;;;;;;1.02;1.02;;;7.10;99.90;;;;;;5048411;28;20049;-74
2023/12/19 04:16:28;;;;;;;1.85;1.75;;;7.10;99.90;;;;;;5052327;28;20077;-74
2023/12/19 04:18:53;;;;;;;0.70;0.70;;;7.10;99.90;;;;;;5049091;28;20080;-74
2023/12/19 04:21:19;;;;;;;1.58;1.48;;;7.10;99.90;;;;;;5050137;28;20036;-74
2023/12/19 04:23:44;;;;;;;7.53;2.75;;;7.10;99.90;;;;;;5055310;28;20075;-75
2023/12/19 04:26:19;;;;;;;1.13;1.13;;;7.10;99.90;;;;;;5047843;28;20132;-75
2023/12/19 04:28:44;;;;;;;3.65;3.35;;;7.00;99.90;;;;;;5051010;28;20051;-75
2023/12/19 04:31:10;;;;;;;1.70;1.60;;;7.10;99.90;;;;;;5058763;28;20048;-74
2023/12/19 04:33:35;;;;;;;1.45;1.17;;;7.10;99.90;;;;;;5046369;28;20386;-74
2023/12/19 04:36:01;;;;;;;2.10;1.92;;;7.10;99.90;;;;;;5048242;28;20037;-74
2023/12/19 04:38:26;;;;;;;1.45;1.35;;;7.10;99.90;;;;;;5054179;28;20048;-75
2023/12/19 04:40:52;;;;;;;1.08;0.90;;;7.10;99.90;;;;;;5053736;28;20044;-75
2023/12/19 04:43:18;;;;;;;1.92;1.55;;;7.10;99.90;;;;;;5051988;28;20044;-75
2023/12/19 04:45:43;;;;;;;2.20;2.10;;;7.10;99.90;;;;;;5060470;28;20060;-74
2023/12/19 04:48:09;;;;;;;1.80;1.70;;;7.10;99.90;;;;;;5050124;28;20716;-74
2023/12/19 04:50:35;;;;;;;0.95;0.95;;;7.10;99.90;;;;;;5053118;28;20057;-75
2023/12/19 04:53:00;;;;;;;0.85;0.85;;;7.10;99.90;;;;;;5059426;28;20087;-75
2023/12/19 04:55:26;;;;;;;7.00;1.75;;;7.10;99.90;;;;;;5055222;28;20045;-75
2023/12/19 04:57:51;;;;;;;1.58;1.48;;;7.10;99.90;;;;;;5051039;28;20117;-75
2023/12/19 05:00:17;;;;;;;2.05;1.83;;;7.10;99.90;;;;;;5050255;28;21602;-75
2023/12/19 05:02:43;;;;;;;1.45;1.35;;;7.10;99.90;;;;;;5050187;28;20049;-75
2023/12/19 05:05:08;;;;;;;1.80;1.70;;;7.10;99.90;;;;;;5055295;28;20045;-75
2023/12/19 05:07:34;;;;;;;2.22;2.05;;;7.10;99.90;;;;;;5055283;28;20057;-75
2023/12/19 05:09:59;;;;;;;1.70;1.25;;;7.10;99.90;;;;;;5058822;28;20068;-75
2023/12/19 05:12:25;;;;;;;1.55;1.45;;;7.10;99.90;;;;;;5065711;28;20044;-74
2023/12/19 05:14:51;;;;;;;1.67;1.55;;;7.10;99.90;;;;;;5057868;28;20052;-74
2023/12/19 05:17:17;;;;;;;1.20;1.10;;;7.10;99.90;;;;;;5060351;28;20378;-74
2023/12/19 05:19:43;;;;;;;2.15;0.98;;;7.10;99.90;;;;;;5055919;28;20799;-75
2023/12/19 05:22:09;;;;;;;0.93;0.93;;;7.10;99.90;;;;;;5057205;28;20520;-74
2023/12/19 05:24:37;;;;;;;0.70;0.70;;;7.10;99.90;;;;;;5061256;28;20132;-75
2023/12/19 05:27:04;;;;;;;0.45;0.45;;;7.10;99.90;;;;;;5049802;28;20742;-75
2023/12/19 05:29:30;;;;;;;1.83;1.73;;;7.10;99.90;;;;;;5043320;28;20131;-75
2023/12/19 05:31:57;;;;;;;1.95;1.02;;;7.10;99.90;;;;;;5049449;28;20049;-75
2023/12/19 05:34:22;;;;;;;0.80;0.80;;;7.10;99.90;;;;;;5059689;28;20048;-75
2023/12/19 05:36:49;;;;;;;0.80;0.80;;;7.10;99.90;;;;;;5050893;28;20052;-75
2023/12/19 05:39:17;;;;;;;3.95;2.17;;;7.10;99.90;;;;;;5047365;28;20127;-74
2023/12/19 05:41:43;;;;;;;1.25;1.25;;;7.10;99.90;;;;;;5029643;28;20143;-74
2023/12/19 05:44:10;;;;;;;3.95;3.10;;;7.10;99.90;;;;;;5053684;28;20076;-75
2023/12/19 05:46:35;;;;;;;0.70;0.70;;;7.10;99.90;;;;;;5053346;28;20081;-74
2023/12/19 05:49:01;;;;;;;2.30;2.08;;;7.10;99.90;;;;;;5050139;28;20208;-75
2023/12/19 05:51:26;;;;;;;1.48;1.38;;;7.10;99.90;;;;;;5063096;28;20090;-75
2023/12/19 05:53:52;;;;;;;1.33;1.33;;;7.10;99.90;;;;;;5056075;28;20114;-75
2023/12/19 05:56:18;;;;;;;1.77;1.55;;;7.10;99.90;;;;;;5054814;28;20390;-75
2023/12/19 05:58:46;;;;;;;0.70;0.70;;;7.10;99.90;;;;;;5051445;28;20049;-75
2023/12/19 06:01:12;;;;;;;4.45;2.05;;;7.10;99.90;;;;;;5049035;28;20083;-75
2023/12/19 06:03:38;;;;;;;0.80;0.80;;;7.10;99.90;;;;;;5053098;28;20622;-75
2023/12/19 06:06:03;;;;;;;0.73;0.73;;;7.10;99.90;;;;;;5063209;28;20451;-75
2023/12/19 06:08:29;;;;;;;1.88;1.77;;;7.20;99.90;;;;;;5057850;28;20057;-75
2023/12/19 06:10:56;;;;;;;2.17;1.65;;;7.20;99.90;;;;;;5052386;28;20090;-75
2023/12/19 06:13:21;;;;;;;0.85;0.85;;;7.20;99.90;;;;;;5051994;28;20048;-75
2023/12/19 06:15:47;;;;;;;0.70;0.70;;;7.20;99.90;;;;;;5052422;28;20047;-74
2023/12/19 06:18:12;;;;;;;0.82;0.82;;;7.20;99.90;;;;;;5058267;28;20512;-75
2023/12/19 06:20:39;;;;;;;0.77;0.77;;;7.20;99.90;;;;;;5065759;28;20052;-74
2023/12/19 06:23:05;;;;;;;0.80;0.80;;;7.20;99.90;;;;;;5063152;28;20394;-75
2023/12/19 06:25:32;;;;;;;1.60;0.90;;;7.20;99.90;;;;;;5055655;28;20048;-75
2023/12/19 06:27:58;;;;;;;3.10;1.33;;;7.20;99.90;;;;;;5060595;28;20048;-75
2023/12/19 06:30:23;;;;;;;1.02;1.00;;;7.20;99.90;;;;;;5057347;28;20074;-75
2023/12/19 06:32:49;;;;;;;1.27;1.20;;;7.20;99.90;;;;;;5057274;28;20040;-75
2023/12/19 06:35:15;;;;;;;1.10;1.10;;;7.20;99.90;;;;;;5053757;28;20167;-75
2023/12/19 06:37:40;;;;;;;0.80;0.80;;;7.20;99.90;;;;;;5055837;28;20124;-75
2023/12/19 06:40:07;;;;;;;0.60;0.60;;;7.20;99.90;;;;;;5053727;28;20089;-75
2023/12/19 06:42:33;;;;;;;1.17;1.17;;;7.20;99.90;;;;;;5055424;28;20051;-75
2023/12/19 06:45:00;;;;;;;0.90;0.90;;;7.20;99.90;;;;;;5062579;28;20040;-75
2023/12/19 06:47:28;;;;;;;0.70;0.70;;;7.20;99.90;;;;;;5054442;28;20041;-74
2023/12/19 06:49:53;;;;;;;2.10;1.45;;;7.20;99.90;;;;;;5056749;28;20116;-75
2023/12/19 06:52:19;;;;;;;0.98;0.65;;;7.20;99.90;;;;;;5048142;28;20135;-75
2023/12/19 06:54:46;;;;;;;1.38;1.27;;;7.20;99.90;;;;;;5054070;28;20044;-75
2023/12/19 06:57:12;;;;;;;0.70;0.70;;;7.20;99.90;;;;;;5053625;28;20049;-75
2023/12/19 06:59:37;;;;;;;1.85;1.25;;;7.20;99.90;;;;;;5054753;28;20056;-75
2023/12/19 07:02:03;;;;;;;1.10;1.10;;;7.20;99.90;;;;;;5050086;28;20075;-75
2023/12/19 07:04:29;;;;;;;2.20;1.85;;;7.20;99.90;;;;;;5053957;28;20408;-75
2023/12/19 07:06:56;;;;;;;1.42;1.13;;;7.20;99.90;;;;;;5047635;28;20052;-75
2023/12/19 07:09:22;;;;;;;0.77;0.77;;;7.20;99.90;;;;;;5055435;28;20506;-75
2023/12/19 07:11:48;;;;;;;0.63;0.63;;;7.20;99.90;;;;;;5055813;28;20052;-75
2023/12/19 07:14:14;;;;;;;0.70;0.70;;;7.20;99.90;;;;;;5051704;28;20037;-75
2023/12/19 07:16:39;;;;;;;0.90;0.90;;;7.30;99.90;;;;;;5048606;28;20620;-75
2023/12/19 07:19:05;;;;;;;1.85;1.50;;;7.20;99.90;;;;;;5047654;28;20052;-75
2023/12/19 07:21:35;;;;;;;0.57;0.57;;;7.30;99.90;;;;;;5056642;28;20336;-75
2023/12/19 07:24:01;;;;;;;1.02;1.02;;;7.30;99.90;;;;;;5063751;28;20045;-75
2023/12/19 07:26:28;;;;;;;0.80;0.80;;;7.30;99.90;;;;;;5049378;28;20041;-75
2023/12/19 07:28:57;;;;;;;1.08;1.05;;;7.30;99.90;;;;;;5048957;28;20445;-75
2023/12/19 07:31:32;;;;;;;0.82;0.82;;;7.30;99.90;;;;;;5050969;28;20127;-75
2023/12/19 07:34:03;;;;;;;1.02;1.02;;;7.30;99.90;;;;;;5050030;28;20045;-75
2023/12/19 07:36:30;;;;;;;1.42;0.80;;;7.30;99.90;;;;;;5046853;28;20548;-75
2023/12/19 07:38:56;;;;;;;0.95;0.80;;;7.30;99.90;;;;;;5057054;28;20159;-75
2023/12/19 07:41:26;;;;;;;0.60;0.60;;;7.30;99.90;;;;;;5049224;28;20038;-75
2023/12/19 07:43:56;;;;;;;1.60;1.20;;;7.30;99.90;;;;;;5051215;28;20097;-75
2023/12/19 07:46:23;;;;;;;0.50;0.50;;;7.30;99.90;;;;;;5047268;28;20044;-75
2023/12/19 07:48:49;;;;;;;1.00;1.00;;;7.30;99.90;;;;;;5052142;28;20045;-75
2023/12/19 07:51:16;;;;;;;0.85;0.85;;;7.30;99.90;;;;;;5053007;28;20064;-75
2023/12/19 07:53:42;;;;;;;4.85;2.45;;;7.40;99.90;;;;;;5058727;28;20529;-75
2023/12/19 07:56:08;;;;;;;0.75;0.75;;;7.40;99.90;;;;;;5058088;28;20045;-75
2023/12/19 07:58:33;;;;;;;1.38;1.05;;;7.40;99.90;;;;;;5062242;28;20056;-75
2023/12/19 08:01:00;;;;;;;4.05;1.63;;;7.40;99.90;;;;;;5058668;28;20135;-75
2023/12/19 08:03:27;;;;;;;0.98;0.98;;;7.40;99.90;;;;;;5048263;28;20102;-75
2023/12/19 08:05:55;;;;;;;0.80;0.80;;;7.40;99.90;;;;;;5052872;28;20098;-75
2023/12/19 08:08:25;;;;;;;1.15;1.05;;;7.40;99.90;;;;;;5049690;28;20053;-75
2023/12/19 08:10:52;;;;;;;1.38;1.13;;;7.40;99.90;;;;;;5054907;28;20049;-74
2023/12/19 08:13:21;;;;;;;0.60;0.60;;;7.40;99.90;;;;;;5050583;28;20175;-74
2023/12/19 08:15:48;;;;;;;2.95;1.35;;;7.40;99.90;;;;;;5051166;28;20049;-75
2023/12/19 08:18:14;;;;;;;0.90;0.90;;;7.40;99.90;;;;;;5042861;28;20169;-74
2023/12/19 08:20:40;;;;;;;1.85;1.30;;;7.40;99.90;;;;;;5054474;28;20091;-74
2023/12/19 08:23:07;;;;;;;1.10;1.10;;;7.40;99.90;;;;;;5054346;28;20053;-74
2023/12/19 08:25:33;;;;;;;1.65;1.23;;;7.40;99.90;;;;;;5058559;28;20066;-74
2023/12/19 08:27:59;;;;;;;2.00;1.45;;;7.40;99.90;;;;;;5056397;28;20498;-74
2023/12/19 08:30:29;;;;;;;0.50;0.50;;;7.50;99.90;;;;;;5048636;28;20055;-74
2023/12/19 08:32:54;;;;;;;0.85;0.85;;;7.50;99.90;;;;;;5056661;28;20870;-75
2023/12/19 08:35:21;;;;;;;0.60;0.60;;;7.50;99.90;;;;;;5060384;28;20052;-74
2023/12/19 08:37:47;;;;;;;2.05;0.85;;;7.50;99.90;;;;;;5052368;28;20060;-75
2023/12/19 08:40:13;;;;;;;0.90;0.90;;;7.50;99.90;;;;;;5054842;28;20498;-74
2023/12/19 08:42:40;;;;;;;0.70;0.70;;;7.50;99.90;;;;;;5059085;28;20047;-74
2023/12/19 08:45:12;;;;;;;0.95;0.93;;;7.50;99.90;;;;;;5051919;28;20044;-74
2023/12/19 08:47:38;;;;;;;1.27;0.70;;;7.50;99.90;;;;;;5055374;28;20048;-75
2023/12/19 08:50:07;;;;;;;0.63;0.63;;;7.50;99.90;;;;;;5061714;28;20413;-74
2023/12/19 08:52:33;;;;;;;1.35;1.25;;;7.50;99.90;;;;;;5064594;28;20128;-74
2023/12/19 08:55:00;;;;;;;0.57;0.57;;;7.60;99.90;;;;;;5055798;28;20098;-74
2023/12/19 08:57:26;;;;;;;1.58;0.85;;;7.60;99.90;;;;;;5057054;28;20052;-75
2023/12/19 08:59:51;;;;;;;0.70;0.70;;;7.50;99.90;;;;;;5058865;28;20061;-75
2023/12/19 09:02:17;;;;;;;0.50;0.50;;;7.60;99.90;;;;;;5059848;28;20056;-75
2023/12/19 09:04:43;;;;;;;0.60;0.60;;;7.60;99.90;;;;;;5061866;28;20045;-75
2023/12/19 09:07:08;;;;;;;0.57;0.57;;;7.60;99.90;;;;;;5055912;28;20053;-75
2023/12/19 09:09:34;;;;;;;0.50;0.50;;;7.60;99.90;;;;;;5051732;28;20049;-75
2023/12/19 09:11:59;;;;;;;0.70;0.70;;;7.60;99.90;;;;;;5053008;28;20563;-74
2023/12/19 09:14:25;;;;;;;0.50;0.50;;;7.60;99.90;;;;;;5061579;28;20045;-75
2023/12/19 09:16:51;;;;;;;0.50;0.50;;;7.60;99.90;;;;;;5049065;28;20100;-75
2023/12/19 09:19:17;;;;;;;0.70;0.70;;;7.70;99.90;;;;;;5060800;28;20127;-75
2023/12/19 09:21:43;;;;;;;0.80;0.80;;;7.70;99.90;;;;;;5053540;28;20049;-75
2023/12/19 09:24:09;;;;;;;0.68;0.68;;;7.70;99.90;;;;;;5053805;28;20041;-74
2023/12/19 09:26:37;;;;;;;1.13;1.08;;;7.70;99.90;;;;;;5048913;28;20269;-75
2023/12/19 09:29:03;;;;;;;0.40;0.40;;;7.70;99.90;;;;;;5052356;28;20080;-75
2023/12/19 09:31:29;;;;;;;0.50;0.50;;;7.70;99.90;;;;;;5061585;28;20076;-75
2023/12/19 09:33:54;;;;;;;0.70;0.70;;;7.80;99.90;;;;;;5055171;28;20079;-75
2023/12/19 09:36:22;;;;;;;0.60;0.60;;;7.80;99.90;;;;;;5065013;28;20044;-75
2023/12/19 09:38:47;;;;;;;0.50;0.50;;;7.80;99.90;;;;;;5031631;28;20171;-74
2023/12/19 09:41:13;;;;;;;0.50;0.50;;;7.80;99.90;;;;;;5054982;28;20139;-75
2023/12/19 09:43:41;;;;;;;2.70;0.82;;;7.80;99.90;;;;;;5055149;28;20057;-75
2023/12/19 09:46:07;;;;;;;0.55;0.55;;;7.90;99.90;;;;;;5056409;28;20056;-75
2023/12/19 09:48:35;;;;;;;1.65;1.02;;;7.80;99.90;;;;;;5041295;28;20075;-73
2023/12/19 09:51:05;;;;;;;0.57;0.57;;;7.90;99.90;;;;;;5059269;28;20769;-74
2023/12/19 09:53:33;;;;;;;0.55;0.55;;;7.90;99.90;;;;;;5054971;28;20402;-74
2023/12/19 09:56:02;;;;;;;0.40;0.40;;;8.00;99.90;;;;;;5050685;28;20045;-74
2023/12/19 09:58:28;;;;;;;0.50;0.50;;;7.90;99.90;;;;;;5032671;28;20087;-74
2023/12/19 10:00:58;;;;;;;3.60;1.05;;;8.00;99.90;;;;;;5052910;28;20053;-75
2023/12/19 10:03:24;;;;;;;1.23;1.13;;;8.00;99.90;;;;;;5050231;28;20044;-75
2023/12/19 10:05:49;;;;;;;0.50;0.50;;;8.00;99.90;;;;;;5054200;28;20144;-75
2023/12/19 10:08:15;;;;;;;0.50;0.50;;;8.00;99.90;;;;;;5051480;28;20052;-75
2023/12/19 10:10:53;;;;;;;0.85;0.85;;;8.00;99.90;;;;;;5053913;28;20409;-75
2023/12/19 10:13:31;;;;;;;0.55;0.55;;;8.00;99.90;;;;;;5052286;28;20488;-74
2023/12/19 10:16:08;;;;;;;0.93;0.93;;;8.10;99.90;;;;;;5056407;28;20060;-75
2023/12/19 10:18:36;;;;;;;1.13;1.13;;;8.10;99.90;;;;;;5058555;28;20053;-75
2023/12/19 10:21:09;;;;;;;0.50;0.50;;;8.10;99.90;;;;;;5052215;28;20781;-74
2023/12/19 10:23:36;;;;;;;0.68;0.68;;;8.20;99.90;;;;;;5052424;28;20045;-75
2023/12/19 10:26:03;;;;;;;0.50;0.50;;;8.20;99.90;;;;;;5055744;28;20044;-75
2023/12/19 10:28:30;;;;;;;0.80;0.80;;;8.30;99.90;;;;;;5069572;28;20118;-75
2023/12/19 10:31:14;;;;;;;0.38;0.38;;;8.30;99.90;;;;;;5055537;28;20067;-75
2023/12/19 10:33:54;;;;;;;0.60;0.60;;;8.30;99.90;;;;;;5058895;28;20123;-75
2023/12/19 10:36:33;;;;;;;0.80;0.80;;;8.30;99.90;;;;;;5048986;28;20045;-75
2023/12/19 10:39:02;;;;;;;0.93;0.93;;;8.30;99.90;;;;;;5051282;28;20106;-75
2023/12/19 10:41:32;;;;;;;0.70;0.70;;;8.40;99.90;;;;;;5054597;28;20563;-75
2023/12/19 10:43:59;;;;;;;0.50;0.50;;;8.40;99.90;;;;;;5051810;28;20071;-75
2023/12/19 10:46:29;;;;;;;0.60;0.60;;;8.40;99.90;;;;;;5054521;28;20613;-75
2023/12/19 10:49:03;;;;;;;3.30;0.60;;;8.50;99.90;;;;;;5047511;28;20541;-75
2023/12/19 10:51:32;;;;;;;0.65;0.65;;;8.50;99.90;;;;;;5045597;28;20495;-75
2023/12/19 10:54:11;;;;;;;1.10;1.10;;;8.50;99.90;;;;;;5047461;28;20110;-75
2023/12/19 10:57:12;;;;;;;0.73;0.73;;;8.50;99.90;;;;;;5053202;28;20462;-75
2023/12/19 11:00:13;;;;;;;0.70;0.70;;;8.50;99.90;;;;;;5054226;28;20697;-75
2023/12/19 11:02:51;;;;;;;0.63;0.63;;;8.50;99.90;;;;;;5051354;28;20049;-75
2023/12/19 11:05:43;;;;;;;0.85;0.85;;;8.60;99.90;;;;;;5053806;28;20048;-75
2023/12/19 11:08:17;;;;;;;0.80;0.80;;;8.60;99.90;;;;;;5056297;28;20056;-74
2023/12/19 11:11:25;;;;;;;1.05;1.05;;;8.60;99.90;;;;;;5049625;28;20052;-75
2023/12/19 11:13:52;;;;;;;0.65;0.65;;;8.60;99.90;;;;;;5047866;28;20060;-75
2023/12/19 11:16:34;;;;;;;0.80;0.80;;;8.60;99.90;;;;;;5049648;28;20552;-75
2023/12/19 11:19:03;;;;;;;1.35;0.88;;;8.50;99.90;;;;;;5052633;28;20072;-75
2023/12/19 11:21:35;;;;;;;1.05;0.55;;;8.60;99.90;;;;;;5052622;28;20089;-75
2023/12/19 11:24:07;;;;;;;0.85;0.85;;;8.60;99.90;;;;;;5054743;28;20431;-75
2023/12/19 11:26:56;;;;;;;0.52;0.52;;;8.60;99.90;;;;;;5051348;28;20607;-75
2023/12/19 11:29:45;;;;;;;2.38;1.70;;;8.60;99.90;;;;;;5051813;28;20053;-75
2023/12/19 11:32:29;;;;;;;1.40;1.35;;;8.60;99.90;;;;;;5053494;28;20544;-75
2023/12/19 11:35:12;;;;;;;0.60;0.60;;;8.60;99.90;;;;;;5046417;28;20099;-74
2023/12/19 11:37:39;;;;;;;1.00;1.00;;;8.60;99.90;;;;;;5057094;28;20048;-75
2023/12/19 11:40:06;;;;;;;0.80;0.80;;;8.60;99.90;;;;;;5053861;28;20053;-75
2023/12/19 11:42:37;;;;;;;1.00;0.98;;;8.60;99.90;;;;;;5056823;28;20044;-75
2023/12/19 11:45:18;;;;;;;1.65;1.00;;;8.60;99.90;;;;;;5045340;28;20037;-75
2023/12/19 11:47:45;;;;;;;1.52;1.30;;;8.60;99.90;;;;;;5055653;28;20194;-75
2023/12/19 11:50:11;;;;;;;1.27;1.17;;;8.60;99.90;;;;;;5045488;28;20058;-75
2023/12/19 11:52:36;;;;;;;2.97;1.55;;;8.60;99.90;;;;;;5052438;28;20390;-75
2023/12/19 11:55:03;;;;;;;2.72;1.50;;;8.60;99.90;;;;;;5065398;28;20048;-75
2023/12/19 11:57:30;;;;;;;0.70;0.70;;;8.60;99.90;;;;;;5049587;28;20103;-75
2023/12/19 11:59:56;;;;;;;0.55;0.55;;;8.60;99.90;;;;;;5061749;28;20152;-75
2023/12/19 12:02:35;;;;;;;2.58;1.17;;;8.60;99.90;;;;;;5050907;28;20470;-76
2023/12/19 12:05:13;;;;;;;4.13;2.22;;;8.60;99.90;;;;;;5047789;28;20045;-74
2023/12/19 12:07:50;;;;;;;1.40;1.20;;;8.60;99.90;;;;;;5053648;28;20521;-74
2023/12/19 12:10:26;;;;;;;1.25;0.95;;;8.60;99.90;;;;;;5054157;28;20056;-74
2023/12/19 12:12:52;;;;;;;1.23;1.15;;;8.60;99.90;;;;;;5062974;28;20072;-74
2023/12/19 12:15:21;;;;;;;1.00;1.00;;;8.60;99.90;;;;;;5058245;28;20076;-74
2023/12/19 12:17:50;;;;;;;1.73;1.45;;;8.60;99.90;;;;;;5057075;28;20443;-75
2023/12/19 12:20:24;;;;;;;0.57;0.57;;;8.60;99.90;;;;;;5054440;28;20060;-75
2023/12/19 12:22:51;;;;;;;0.50;0.50;;;8.60;99.90;;;;;;5061219;28;20760;-75
2023/12/19 12:25:19;;;;;;;0.95;0.95;;;8.70;99.90;;;;;;5057964;28;20044;-75
2023/12/19 12:27:45;;;;;;;1.52;1.42;;;8.60;99.90;;;;;;5064584;28;20067;-75
2023/12/19 12:30:11;;;;;;;0.50;0.50;;;8.70;99.90;;;;;;5068876;28;20413;-75
2023/12/19 12:32:39;;;;;;;1.42;1.27;;;8.70;99.90;;;;;;5053605;28;20052;-75
2023/12/19 12:35:28;;;;;;;0.88;0.88;;;8.70;99.90;;;;;;5056937;28;20071;-74
2023/12/19 12:38:03;;;;;;;0.90;0.90;;;8.70;99.90;;;;;;5057177;28;20087;-75
2023/12/19 12:40:29;;;;;;;0.40;0.40;;;8.70;99.90;;;;;;5060992;28;20565;-75
2023/12/19 12:43:28;;;;;;;2.65;0.88;;;8.70;99.90;;;;;;5058463;28;20132;-75
2023/12/19 12:46:08;;;;;;;0.57;0.57;;;8.70;99.90;;;;;;5055207;28;20072;-75
2023/12/19 12:48:35;;;;;;;0.70;0.70;;;8.70;99.90;;;;;;5038521;28;20055;-76
2023/12/19 12:51:01;;;;;;;0.55;0.55;;;8.70;99.90;;;;;;5060037;28;20584;-76
2023/12/19 12:53:27;;;;;;;0.63;0.55;;;8.70;99.90;;;;;;5057555;28;20087;-75
2023/12/19 12:56:16;;;;;;;1.05;0.70;;;8.70;99.90;;;;;;5053023;28;20044;-75
2023/12/19 12:58:42;;;;;;;0.45;0.45;;;8.70;99.90;;;;;;5057901;28;20078;-76
2023/12/19 13:01:09;;;;;;;0.75;0.75;;;8.70;99.90;;;;;;5054899;28;20605;-76